< < Back
Terminal Aerodrome Forecast


Current Version              Previous Versions:   1  2  3  4  5  6  7  8  9  

Terminal Aerodrome Forecast

541
FTUS42 KTAE 281100
TAFABY
TAF
KABY 281120Z 2812/0112 03004KT P6SM SCT050 BKN200
     FM281400 06010KT P6SM SCT025 OVC050
     FM281700 06011KT 6SM -DZ BR VCSH OVC025
     FM010000 06010KT P6SM OVC015
     FM010500 05008KT 6SM BR OVC007=

Latest METAR

603
SAUS70 KWBC 281400 RRR
MTRABY
METAR KABY 281353Z 05011KT 10SM OVC036 08/03 A3050 RMK AO2 SLP330
T00780028


USA.gov is the U.S. government's official web portal to all federal, state and local government web resources and services.